Squaw Lake, Minnesota
Current Conditions -  °F | °C
As of 8:13 AM on Monday 24 Nov 2014 (Local Time) from KFOZ Reporting Station
Light Snow Light Snow  
Wind Chill: 12°   Ceiling: 1100
Heat Index: 21°   Visibility: 7mi
Dew Point: 18°   Wind: 8mph
Humidity: 86%   Direction: 340°NNW
Pressure: 29.43"   Gusts: 18mph
Location:  47.63°N, 94.14°W
Report Text: KFOZ 241413Z AUTO 34007G16KT 313V013 7SM -SN OVC011 M06/M08 A2943 RMK AO2
Loading
Personal Weather Stations






























Interactive Weather Map New forecast layout! Learn more

10-Day Weather Forecast

Advertisements
Track Severe Weather on mobile